sensor_id;sensor_type;location;lat;lon;timestamp;P1;durP1;ratioP1;P2;durP2;ratioP2
21305;SDS011;10812;51.838;5.838;2023-07-29T00:00:59;10.13;;;9.05;;
21305;SDS011;10812;51.838;5.838;2023-07-29T00:03:28;10.48;;;9.38;;
21305;SDS011;10812;51.838;5.838;2023-07-29T00:05:58;13.68;;;10.40;;
21305;SDS011;10812;51.838;5.838;2023-07-29T00:08:26;13.63;;;9.88;;
21305;SDS011;10812;51.838;5.838;2023-07-29T00:10:54;10.98;;;9.75;;
21305;SDS011;10812;51.838;5.838;2023-07-29T00:13:22;11.75;;;9.35;;
21305;SDS011;10812;51.838;5.838;2023-07-29T00:15:53;10.90;;;9.73;;
21305;SDS011;10812;51.838;5.838;2023-07-29T00:18:23;11.40;;;9.32;;
21305;SDS011;10812;51.838;5.838;2023-07-29T00:20:51;11.57;;;8.95;;
21305;SDS011;10812;51.838;5.838;2023-07-29T00:23:19;10.02;;;8.98;;
21305;SDS011;10812;51.838;5.838;2023-07-29T00:25:47;11.60;;;8.88;;
21305;SDS011;10812;51.838;5.838;2023-07-29T00:28:15;10.73;;;9.18;;
21305;SDS011;10812;51.838;5.838;2023-07-29T00:30:48;10.10;;;9.10;;
21305;SDS011;10812;51.838;5.838;2023-07-29T00:33:16;11.80;;;9.85;;
21305;SDS011;10812;51.838;5.838;2023-07-29T00:35:47;12.32;;;10.15;;
21305;SDS011;10812;51.838;5.838;2023-07-29T00:38:15;10.60;;;8.98;;
21305;SDS011;10812;51.838;5.838;2023-07-29T00:40:44;12.25;;;9.98;;
21305;SDS011;10812;51.838;5.838;2023-07-29T00:43:12;12.82;;;10.20;;
21305;SDS011;10812;51.838;5.838;2023-07-29T00:45:40;13.13;;;9.88;;
21305;SDS011;10812;51.838;5.838;2023-07-29T00:48:10;14.05;;;10.32;;
21305;SDS011;10812;51.838;5.838;2023-07-29T00:50:38;10.80;;;9.70;;
21305;SDS011;10812;51.838;5.838;2023-07-29T00:53:08;11.55;;;10.35;;
21305;SDS011;10812;51.838;5.838;2023-07-29T00:55:37;13.18;;;10.52;;
21305;SDS011;10812;51.838;5.838;2023-07-29T00:58:05;14.93;;;10.27;;
21305;SDS011;10812;51.838;5.838;2023-07-29T01:00:33;13.88;;;10.43;;
21305;SDS011;10812;51.838;5.838;2023-07-29T01:03:01;14.48;;;11.52;;
21305;SDS011;10812;51.838;5.838;2023-07-29T01:05:32;16.38;;;11.60;;
21305;SDS011;10812;51.838;5.838;2023-07-29T01:08:05;11.82;;;10.63;;
21305;SDS011;10812;51.838;5.838;2023-07-29T01:10:45;13.02;;;11.38;;
21305;SDS011;10812;51.838;5.838;2023-07-29T01:13:19;14.57;;;10.77;;
21305;SDS011;10812;51.838;5.838;2023-07-29T01:15:54;13.45;;;11.13;;
21305;SDS011;10812;51.838;5.838;2023-07-29T01:18:26;12.32;;;10.77;;
21305;SDS011;10812;51.838;5.838;2023-07-29T01:20:58;12.65;;;10.40;;
21305;SDS011;10812;51.838;5.838;2023-07-29T01:23:30;12.98;;;11.55;;
21305;SDS011;10812;51.838;5.838;2023-07-29T01:25:58;16.50;;;11.52;;
21305;SDS011;10812;51.838;5.838;2023-07-29T01:28:27;13.05;;;10.32;;
21305;SDS011;10812;51.838;5.838;2023-07-29T01:30:57;11.50;;;10.13;;
21305;SDS011;10812;51.838;5.838;2023-07-29T01:33:30;11.82;;;10.20;;
21305;SDS011;10812;51.838;5.838;2023-07-29T01:36:06;11.55;;;10.38;;
21305;SDS011;10812;51.838;5.838;2023-07-29T01:38:40;11.25;;;10.05;;
21305;SDS011;10812;51.838;5.838;2023-07-29T01:41:10;11.45;;;10.25;;
21305;SDS011;10812;51.838;5.838;2023-07-29T01:43:39;11.23;;;9.90;;
21305;SDS011;10812;51.838;5.838;2023-07-29T01:46:10;11.88;;;10.40;;
21305;SDS011;10812;51.838;5.838;2023-07-29T01:48:39;12.10;;;10.80;;
21305;SDS011;10812;51.838;5.838;2023-07-29T01:51:07;15.65;;;11.65;;
21305;SDS011;10812;51.838;5.838;2023-07-29T01:53:39;15.13;;;11.82;;
21305;SDS011;10812;51.838;5.838;2023-07-29T01:56:08;14.15;;;11.57;;
21305;SDS011;10812;51.838;5.838;2023-07-29T01:58:36;13.75;;;10.55;;
21305;SDS011;10812;51.838;5.838;2023-07-29T02:01:04;13.48;;;11.60;;
21305;SDS011;10812;51.838;5.838;2023-07-29T02:03:32;13.30;;;10.77;;
21305;SDS011;10812;51.838;5.838;2023-07-29T02:06:00;13.40;;;10.52;;
21305;SDS011;10812;51.838;5.838;2023-07-29T02:08:28;13.98;;;11.45;;
21305;SDS011;10812;51.838;5.838;2023-07-29T02:10:58;14.38;;;11.70;;
21305;SDS011;10812;51.838;5.838;2023-07-29T02:13:26;13.07;;;10.80;;
21305;SDS011;10812;51.838;5.838;2023-07-29T02:15:54;12.95;;;10.73;;
21305;SDS011;10812;51.838;5.838;2023-07-29T02:18:22;13.32;;;11.38;;
21305;SDS011;10812;51.838;5.838;2023-07-29T02:20:50;13.50;;;11.32;;
21305;SDS011;10812;51.838;5.838;2023-07-29T02:23:18;15.32;;;11.75;;
21305;SDS011;10812;51.838;5.838;2023-07-29T02:25:46;14.32;;;10.68;;
21305;SDS011;10812;51.838;5.838;2023-07-29T02:28:15;12.88;;;10.65;;
21305;SDS011;10812;51.838;5.838;2023-07-29T02:30:44;11.23;;;9.23;;
21305;SDS011;10812;51.838;5.838;2023-07-29T02:33:12;9.02;;;7.53;;
21305;SDS011;10812;51.838;5.838;2023-07-29T02:35:40;10.80;;;7.10;;
21305;SDS011;10812;51.838;5.838;2023-07-29T02:38:08;9.30;;;6.97;;
21305;SDS011;10812;51.838;5.838;2023-07-29T02:40:37;9.93;;;7.50;;
21305;SDS011;10812;51.838;5.838;2023-07-29T02:43:05;9.75;;;6.53;;
21305;SDS011;10812;51.838;5.838;2023-07-29T02:45:35;8.70;;;7.20;;
21305;SDS011;10812;51.838;5.838;2023-07-29T02:48:03;9.00;;;6.57;;
21305;SDS011;10812;51.838;5.838;2023-07-29T02:50:31;7.55;;;6.32;;
21305;SDS011;10812;51.838;5.838;2023-07-29T02:53:01;7.18;;;6.05;;
21305;SDS011;10812;51.838;5.838;2023-07-29T02:55:29;11.20;;;6.15;;
21305;SDS011;10812;51.838;5.838;2023-07-29T02:57:57;7.43;;;6.07;;
21305;SDS011;10812;51.838;5.838;2023-07-29T03:05:44;8.40;;;5.53;;
